sensor_id;sensor_type;location;lat;lon;timestamp;pressure;altitude;pressure_sealevel;temperature;humidity
7335;BME280;3708;42.632;23.378;2023-03-22T00:01:13;93952.38;;;12.39;64.25
7335;BME280;3708;42.632;23.378;2023-03-22T00:03:42;93953.75;;;12.64;63.09
7335;BME280;3708;42.632;23.378;2023-03-22T00:06:09;93955.88;;;12.90;62.21
7335;BME280;3708;42.632;23.378;2023-03-22T00:08:37;93951.63;;;12.54;63.07
7335;BME280;3708;42.632;23.378;2023-03-22T00:11:05;93957.81;;;12.46;63.15
7335;BME280;3708;42.632;23.378;2023-03-22T00:13:33;93955.22;;;12.34;62.56
7335;BME280;3708;42.632;23.378;2023-03-22T00:16:01;93954.22;;;12.39;62.90
7335;BME280;3708;42.632;23.378;2023-03-22T00:18:28;93951.38;;;12.16;64.25
7335;BME280;3708;42.632;23.378;2023-03-22T00:20:59;93950.97;;;12.14;64.46
7335;BME280;3708;42.632;23.378;2023-03-22T00:23:27;93960.69;;;11.74;65.54
7335;BME280;3708;42.632;23.378;2023-03-22T00:25:55;93951.88;;;11.18;67.98
7335;BME280;3708;42.632;23.378;2023-03-22T00:28:22;93960.25;;;11.72;67.18
7335;BME280;3708;42.632;23.378;2023-03-22T00:30:51;93951.06;;;11.66;66.53
7335;BME280;3708;42.632;23.378;2023-03-22T00:33:18;93955.00;;;11.72;67.70
7335;BME280;3708;42.632;23.378;2023-03-22T00:35:50;93949.69;;;11.68;67.22
7335;BME280;3708;42.632;23.378;2023-03-22T00:38:18;93948.91;;;11.68;67.22
7335;BME280;3708;42.632;23.378;2023-03-22T00:40:45;93937.38;;;12.12;65.29
7335;BME280;3708;42.632;23.378;2023-03-22T00:43:13;93940.97;;;12.19;63.68
7335;BME280;3708;42.632;23.378;2023-03-22T00:45:40;93947.66;;;12.17;63.95
7335;BME280;3708;42.632;23.378;2023-03-22T00:48:07;93938.78;;;11.82;65.31
7335;BME280;3708;42.632;23.378;2023-03-22T00:50:35;93946.31;;;11.31;65.94
7335;BME280;3708;42.632;23.378;2023-03-22T00:53:02;93940.22;;;11.27;66.20
7335;BME280;3708;42.632;23.378;2023-03-22T00:55:30;93937.88;;;11.50;64.82
7335;BME280;3708;42.632;23.378;2023-03-22T00:57:58;93937.56;;;11.39;65.08
7335;BME280;3708;42.632;23.378;2023-03-22T01:00:25;93943.66;;;11.56;64.77
7335;BME280;3708;42.632;23.378;2023-03-22T01:02:52;93934.09;;;11.11;66.13
7335;BME280;3708;42.632;23.378;2023-03-22T01:05:24;93941.50;;;10.85;67.29
7335;BME280;3708;42.632;23.378;2023-03-22T01:07:52;93937.69;;;11.31;66.82
7335;BME280;3708;42.632;23.378;2023-03-22T01:10:19;93939.50;;;11.55;65.96
7335;BME280;3708;42.632;23.378;2023-03-22T01:12:47;93933.44;;;11.14;66.97
7335;BME280;3708;42.632;23.378;2023-03-22T01:15:14;93925.13;;;10.76;68.96
7335;BME280;3708;42.632;23.378;2023-03-22T01:17:41;93923.91;;;10.61;69.23
7335;BME280;3708;42.632;23.378;2023-03-22T01:20:09;93926.34;;;10.01;71.76
7335;BME280;3708;42.632;23.378;2023-03-22T01:22:36;93918.91;;;10.56;70.13
7335;BME280;3708;42.632;23.378;2023-03-22T01:25:04;93920.22;;;10.62;70.32
7335;BME280;3708;42.632;23.378;2023-03-22T01:27:30;93921.44;;;10.20;72.21
7335;BME280;3708;42.632;23.378;2023-03-22T01:29:59;93919.06;;;10.27;72.14
7335;BME280;3708;42.632;23.378;2023-03-22T01:32:26;93916.00;;;10.37;72.33
7335;BME280;3708;42.632;23.378;2023-03-22T01:34:53;93911.59;;;10.62;71.49
7335;BME280;3708;42.632;23.378;2023-03-22T01:37:20;93910.25;;;10.44;71.81
7335;BME280;3708;42.632;23.378;2023-03-22T01:39:52;93913.97;;;10.31;72.51
7335;BME280;3708;42.632;23.378;2023-03-22T01:42:20;93909.78;;;10.18;73.62
7335;BME280;3708;42.632;23.378;2023-03-22T01:48:07;93910.13;;;10.08;75.33
7335;BME280;3708;42.632;23.378;2023-03-22T01:50:37;93909.53;;;10.11;74.67
7335;BME280;3708;42.632;23.378;2023-03-22T01:53:08;93910.41;;;10.15;74.01
7335;BME280;3708;42.632;23.378;2023-03-22T01:55:36;93905.34;;;10.42;74.30
7335;BME280;3708;42.632;23.378;2023-03-22T01:58:03;93908.94;;;10.38;73.78
7335;BME280;3708;42.632;23.378;2023-03-22T02:00:31;93907.44;;;10.49;72.87
7335;BME280;3708;42.632;23.378;2023-03-22T02:02:59;93903.34;;;10.27;72.66
7335;BME280;3708;42.632;23.378;2023-03-22T02:05:28;93900.09;;;9.97;74.84
7335;BME280;3708;42.632;23.378;2023-03-22T02:07:56;93910.97;;;9.67;75.26
7335;BME280;3708;42.632;23.378;2023-03-22T02:10:26;93907.66;;;9.78;75.49
7335;BME280;3708;42.632;23.378;2023-03-22T02:13:06;93908.41;;;9.58;76.10
7335;BME280;3708;42.632;23.378;2023-03-22T02:15:40;93904.56;;;10.30;74.06
7335;BME280;3708;42.632;23.378;2023-03-22T02:18:27;93905.09;;;10.35;74.09
7335;BME280;3708;42.632;23.378;2023-03-22T02:21:25;93911.44;;;10.46;71.49
7335;BME280;3708;42.632;23.378;2023-03-22T02:27:01;93915.81;;;10.30;73.02
7335;BME280;3708;42.632;23.378;2023-03-22T02:29:39;93918.19;;;10.35;72.62
7335;BME280;3708;42.632;23.378;2023-03-22T02:32:25;93920.50;;;10.37;72.25
7335;BME280;3708;42.632;23.378;2023-03-22T02:38:29;93926.09;;;10.59;71.35
7335;BME280;3708;42.632;23.378;2023-03-22T02:41:09;93927.31;;;10.50;71.77
7335;BME280;3708;42.632;23.378;2023-03-22T02:43:41;93925.69;;;10.82;70.92
7335;BME280;3708;42.632;23.378;2023-03-22T02:46:17;93930.25;;;11.09;70.04
7335;BME280;3708;42.632;23.378;2023-03-22T02:48:54;93930.47;;;10.67;70.20
7335;BME280;3708;42.632;23.378;2023-03-22T02:51:30;93931.38;;;10.71;70.49
7335;BME280;3708;42.632;23.378;2023-03-22T02:54:02;93928.28;;;10.13;73.12
7335;BME280;3708;42.632;23.378;2023-03-22T02:56:36;93933.59;;;10.37;72.45
7335;BME280;3708;42.632;23.378;2023-03-22T02:59:06;93930.94;;;10.25;72.50
7335;BME280;3708;42.632;23.378;2023-03-22T03:01:39;93932.34;;;10.22;72.56
7335;BME280;3708;42.632;23.378;2023-03-22T03:04:12;93934.25;;;9.80;73.89
7335;BME280;3708;42.632;23.378;2023-03-22T03:06:43;93932.22;;;9.65;74.79
7335;BME280;3708;42.632;23.378;2023-03-22T03:09:13;93933.69;;;10.08;73.55
7335;BME280;3708;42.632;23.378;2023-03-22T03:11:45;93931.19;;;10.44;72.53
7335;BME280;3708;42.632;23.378;2023-03-22T03:14:21;93930.84;;;10.78;70.42
7335;BME280;3708;42.632;23.378;2023-03-22T03:17:00;93935.09;;;10.26;72.04
7335;BME280;3708;42.632;23.378;2023-03-22T03:19:35;93940.16;;;10.55;70.44
7335;BME280;3708;42.632;23.378;2023-03-22T03:22:12;93935.16;;;9.96;72.07
7335;BME280;3708;42.632;23.378;2023-03-22T03:24:47;93934.56;;;10.32;71.35
7335;BME280;3708;42.632;23.378;2023-03-22T03:27:22;93937.53;;;10.43;70.03
7335;BME280;3708;42.632;23.378;2023-03-22T03:29:56;93943.25;;;9.91;71.42
7335;BME280;3708;42.632;23.378;2023-03-22T03:32:30;93935.25;;;9.88;72.56
7335;BME280;3708;42.632;23.378;2023-03-22T03:35:03;93937.84;;;10.09;70.98
7335;BME280;3708;42.632;23.378;2023-03-22T03:37:34;93938.75;;;9.92;71.26
7335;BME280;3708;42.632;23.378;2023-03-22T03:40:11;93934.41;;;10.17;70.64
7335;BME280;3708;42.632;23.378;2023-03-22T03:42:47;93943.81;;;10.30;70.19
7335;BME280;3708;42.632;23.378;2023-03-22T03:45:17;93936.47;;;10.56;69.49
7335;BME280;3708;42.632;23.378;2023-03-22T03:47:47;93941.00;;;10.35;69.29
7335;BME280;3708;42.632;23.378;2023-03-22T03:50:23;93947.31;;;10.22;70.24
7335;BME280;3708;42.632;23.378;2023-03-22T03:52:51;93936.94;;;10.25;69.87
7335;BME280;3708;42.632;23.378;2023-03-22T03:55:42;93941.03;;;10.14;70.87
7335;BME280;3708;42.632;23.378;2023-03-22T03:58:17;93942.09;;;10.46;68.98
7335;BME280;3708;42.632;23.378;2023-03-22T04:00:44;93948.13;;;10.14;70.44
7335;BME280;3708;42.632;23.378;2023-03-22T04:03:11;93951.88;;;10.25;70.22
7335;BME280;3708;42.632;23.378;2023-03-22T04:05:41;93939.91;;;10.36;69.81
7335;BME280;3708;42.632;23.378;2023-03-22T04:08:08;93950.50;;;10.07;70.49
7335;BME280;3708;42.632;23.378;2023-03-22T04:10:35;93956.31;;;9.91;71.21
7335;BME280;3708;42.632;23.378;2023-03-22T04:13:03;93955.47;;;9.99;71.57
7335;BME280;3708;42.632;23.378;2023-03-22T04:15:32;93955.88;;;9.89;71.71
7335;BME280;3708;42.632;23.378;2023-03-22T04:17:59;93954.78;;;9.90;71.54
7335;BME280;3708;42.632;23.378;2023-03-22T04:20:26;93948.91;;;9.73;71.86
7335;BME280;3708;42.632;23.378;2023-03-22T04:22:54;93958.97;;;10.04;71.73
7335;BME280;3708;42.632;23.378;2023-03-22T04:25:22;93961.09;;;9.89;71.96
7335;BME280;3708;42.632;23.378;2023-03-22T04:27:54;93952.03;;;10.52;70.60
7335;BME280;3708;42.632;23.378;2023-03-22T04:30:21;93964.78;;;10.30;70.53
7335;BME280;3708;42.632;23.378;2023-03-22T04:32:50;93961.88;;;10.11;71.00
7335;BME280;3708;42.632;23.378;2023-03-22T04:35:17;93964.53;;;9.81;72.01
7335;BME280;3708;42.632;23.378;2023-03-22T04:37:47;93968.75;;;9.74;73.80
7335;BME280;3708;42.632;23.378;2023-03-22T04:40:14;93972.88;;;10.16;72.52
7335;BME280;3708;42.632;23.378;2023-03-22T04:42:41;93979.84;;;10.33;71.23
7335;BME280;3708;42.632;23.378;2023-03-22T04:45:09;93964.25;;;10.36;71.81
7335;BME280;3708;42.632;23.378;2023-03-22T04:47:36;93979.00;;;10.20;71.50
7335;BME280;3708;42.632;23.378;2023-03-22T04:50:09;93972.19;;;9.86;72.87
7335;BME280;3708;42.632;23.378;2023-03-22T04:52:36;93977.69;;;9.93;73.67
7335;BME280;3708;42.632;23.378;2023-03-22T04:55:03;93983.56;;;10.44;71.66
7335;BME280;3708;42.632;23.378;2023-03-22T04:57:30;93978.47;;;10.15;73.31
7335;BME280;3708;42.632;23.378;2023-03-22T04:59:59;93976.72;;;9.77;73.89
7335;BME280;3708;42.632;23.378;2023-03-22T05:02:26;93984.56;;;9.77;74.60
7335;BME280;3708;42.632;23.378;2023-03-22T05:04:53;93988.66;;;9.87;75.08
7335;BME280;3708;42.632;23.378;2023-03-22T05:07:22;93994.78;;;9.91;74.24
7335;BME280;3708;42.632;23.378;2023-03-22T05:09:53;93998.50;;;10.11;73.48
7335;BME280;3708;42.632;23.378;2023-03-22T05:12:20;93999.63;;;9.80;73.81
7335;BME280;3708;42.632;23.378;2023-03-22T05:14:47;94003.06;;;9.93;73.85
7335;BME280;3708;42.632;23.378;2023-03-22T05:17:14;94010.44;;;9.79;74.71
7335;BME280;3708;42.632;23.378;2023-03-22T05:19:41;94006.88;;;9.54;74.13
7335;BME280;3708;42.632;23.378;2023-03-22T05:22:25;94002.56;;;9.79;74.47
7335;BME280;3708;42.632;23.378;2023-03-22T05:24:56;94008.56;;;9.79;74.53
7335;BME280;3708;42.632;23.378;2023-03-22T05:27:26;94006.97;;;10.08;73.05
7335;BME280;3708;42.632;23.378;2023-03-22T05:29:59;94010.53;;;9.82;73.67
7335;BME280;3708;42.632;23.378;2023-03-22T05:32:27;94008.56;;;9.79;73.83
7335;BME280;3708;42.632;23.378;2023-03-22T05:34:54;94012.94;;;9.67;73.77
7335;BME280;3708;42.632;23.378;2023-03-22T05:37:21;94003.22;;;10.17;72.31
7335;BME280;3708;42.632;23.378;2023-03-22T05:39:50;94012.00;;;9.71;73.37
7335;BME280;3708;42.632;23.378;2023-03-22T05:42:17;94014.44;;;10.38;71.89
7335;BME280;3708;42.632;23.378;2023-03-22T05:44:45;94007.66;;;10.37;71.13
7335;BME280;3708;42.632;23.378;2023-03-22T05:47:12;94014.69;;;10.45;71.27
7335;BME280;3708;42.632;23.378;2023-03-22T05:49:39;94010.91;;;10.67;69.93
7335;BME280;3708;42.632;23.378;2023-03-22T05:52:06;94015.78;;;10.24;71.84
7335;BME280;3708;42.632;23.378;2023-03-22T05:54:36;94015.31;;;10.01;71.85
7335;BME280;3708;42.632;23.378;2023-03-22T05:57:04;94033.06;;;9.95;72.55
7335;BME280;3708;42.632;23.378;2023-03-22T05:59:32;94034.84;;;10.04;72.12
7335;BME280;3708;42.632;23.378;2023-03-22T06:02:01;94031.19;;;10.58;71.26
7335;BME280;3708;42.632;23.378;2023-03-22T06:04:28;94033.47;;;10.27;71.77
7335;BME280;3708;42.632;23.378;2023-03-22T06:06:58;94037.81;;;10.88;70.32
7335;BME280;3708;42.632;23.378;2023-03-22T06:09:25;94037.50;;;10.57;69.65
7335;BME280;3708;42.632;23.378;2023-03-22T06:11:53;94035.16;;;10.76;69.78
7335;BME280;3708;42.632;23.378;2023-03-22T06:14:23;94039.75;;;10.91;69.12
7335;BME280;3708;42.632;23.378;2023-03-22T06:16:50;94044.91;;;10.55;70.06
7335;BME280;3708;42.632;23.378;2023-03-22T06:19:17;94048.81;;;10.69;70.59
7335;BME280;3708;42.632;23.378;2023-03-22T06:21:44;94040.53;;;10.06;72.59
7335;BME280;3708;42.632;23.378;2023-03-22T06:24:12;94046.53;;;10.80;70.31
7335;BME280;3708;42.632;23.378;2023-03-22T06:26:39;94039.81;;;10.58;70.92
7335;BME280;3708;42.632;23.378;2023-03-22T06:29:06;94048.34;;;11.12;69.31
7335;BME280;3708;42.632;23.378;2023-03-22T06:31:35;94041.16;;;10.77;70.30
7335;BME280;3708;42.632;23.378;2023-03-22T06:34:32;94043.28;;;10.95;68.76
7335;BME280;3708;42.632;23.378;2023-03-22T06:37:21;94045.44;;;10.48;70.74
7335;BME280;3708;42.632;23.378;2023-03-22T06:39:49;94050.19;;;11.12;70.39
7335;BME280;3708;42.632;23.378;2023-03-22T06:42:17;94050.84;;;11.09;68.40
7335;BME280;3708;42.632;23.378;2023-03-22T06:44:54;94042.38;;;10.91;68.65
7335;BME280;3708;42.632;23.378;2023-03-22T06:47:24;94046.50;;;11.25;67.57
7335;BME280;3708;42.632;23.378;2023-03-22T06:49:53;94047.22;;;11.01;68.19
7335;BME280;3708;42.632;23.378;2023-03-22T06:52:20;94053.53;;;11.00;68.79
7335;BME280;3708;42.632;23.378;2023-03-22T06:54:48;94059.66;;;10.92;68.75
7335;BME280;3708;42.632;23.378;2023-03-22T06:57:16;94052.72;;;11.32;67.63
7335;BME280;3708;42.632;23.378;2023-03-22T06:59:45;94067.50;;;11.49;67.10
7335;BME280;3708;42.632;23.378;2023-03-22T07:02:13;94065.38;;;11.18;67.86
7335;BME280;3708;42.632;23.378;2023-03-22T07:05:06;94071.28;;;11.51;67.30
7335;BME280;3708;42.632;23.378;2023-03-22T07:07:50;94068.25;;;11.37;67.39
7335;BME280;3708;42.632;23.378;2023-03-22T07:10:18;94069.88;;;10.85;68.26
7335;BME280;3708;42.632;23.378;2023-03-22T07:12:45;94067.97;;;10.94;69.42
7335;BME280;3708;42.632;23.378;2023-03-22T07:15:14;94088.91;;;10.82;69.21
7335;BME280;3708;42.632;23.378;2023-03-22T07:17:42;94079.25;;;11.43;68.41
7335;BME280;3708;42.632;23.378;2023-03-22T07:20:18;94089.22;;;11.25;67.76
7335;BME280;3708;42.632;23.378;2023-03-22T07:22:45;94090.63;;;10.78;69.14
7335;BME280;3708;42.632;23.378;2023-03-22T07:25:15;94090.53;;;11.31;68.00
7335;BME280;3708;42.632;23.378;2023-03-22T07:27:41;94096.63;;;11.23;66.79
7335;BME280;3708;42.632;23.378;2023-03-22T07:30:10;94097.75;;;11.59;66.81
7335;BME280;3708;42.632;23.378;2023-03-22T07:32:40;94098.19;;;11.48;65.71
7335;BME280;3708;42.632;23.378;2023-03-22T07:35:09;94102.75;;;11.39;66.15
7335;BME280;3708;42.632;23.378;2023-03-22T07:37:59;94100.47;;;11.38;67.85
7335;BME280;3708;42.632;23.378;2023-03-22T07:40:28;94104.91;;;11.94;66.17
7335;BME280;3708;42.632;23.378;2023-03-22T07:42:56;94104.91;;;11.94;66.47
7335;BME280;3708;42.632;23.378;2023-03-22T07:45:24;94115.72;;;11.81;66.49
7335;BME280;3708;42.632;23.378;2023-03-22T07:47:53;94101.94;;;11.96;65.60
7335;BME280;3708;42.632;23.378;2023-03-22T07:50:20;94114.81;;;11.52;66.21
7335;BME280;3708;42.632;23.378;2023-03-22T07:52:47;94108.06;;;11.76;65.13
7335;BME280;3708;42.632;23.378;2023-03-22T07:55:21;94112.06;;;11.61;65.97
7335;BME280;3708;42.632;23.378;2023-03-22T07:57:56;94113.75;;;11.09;66.47
7335;BME280;3708;42.632;23.378;2023-03-22T08:00:23;94119.19;;;11.61;65.02
7335;BME280;3708;42.632;23.378;2023-03-22T08:02:53;94111.25;;;11.81;64.23
7335;BME280;3708;42.632;23.378;2023-03-22T08:05:20;94114.81;;;11.52;64.69
7335;BME280;3708;42.632;23.378;2023-03-22T08:07:48;94118.41;;;11.48;64.23
7335;BME280;3708;42.632;23.378;2023-03-22T08:10:16;94116.94;;;11.26;64.63
7335;BME280;3708;42.632;23.378;2023-03-22T08:12:47;94114.03;;;11.40;63.94
7335;BME280;3708;42.632;23.378;2023-03-22T08:15:17;94112.19;;;11.52;64.16
7335;BME280;3708;42.632;23.378;2023-03-22T08:17:44;94111.78;;;11.99;62.62
7335;BME280;3708;42.632;23.378;2023-03-22T08:20:14;94116.34;;;12.14;62.00
7335;BME280;3708;42.632;23.378;2023-03-22T08:22:57;94118.31;;;12.17;61.65
7335;BME280;3708;42.632;23.378;2023-03-22T08:25:30;94122.34;;;12.27;62.01
7335;BME280;3708;42.632;23.378;2023-03-22T08:28:06;94115.69;;;12.29;61.66
7335;BME280;3708;42.632;23.378;2023-03-22T08:30:34;94127.53;;;11.99;62.02
7335;BME280;3708;42.632;23.378;2023-03-22T08:33:02;94122.28;;;11.87;62.52
7335;BME280;3708;42.632;23.378;2023-03-22T08:35:31;94120.03;;;12.25;62.18
7335;BME280;3708;42.632;23.378;2023-03-22T08:38:16;94123.56;;;12.17;62.31
7335;BME280;3708;42.632;23.378;2023-03-22T08:40:47;94122.88;;;12.44;62.07
7335;BME280;3708;42.632;23.378;2023-03-22T08:43:16;94129.47;;;12.02;63.05
7335;BME280;3708;42.632;23.378;2023-03-22T08:45:43;94121.06;;;11.72;64.90
7335;BME280;3708;42.632;23.378;2023-03-22T08:48:10;94129.03;;;11.64;64.61
7335;BME280;3708;42.632;23.378;2023-03-22T08:50:37;94126.84;;;11.78;64.52
7335;BME280;3708;42.632;23.378;2023-03-22T08:53:07;94135.28;;;11.95;63.17
7335;BME280;3708;42.632;23.378;2023-03-22T08:55:35;94134.72;;;12.02;61.99
7335;BME280;3708;42.632;23.378;2023-03-22T08:58:04;94129.50;;;12.14;62.49
7335;BME280;3708;42.632;23.378;2023-03-22T09:00:36;94130.13;;;12.63;61.38
7335;BME280;3708;42.632;23.378;2023-03-22T09:03:06;94139.09;;;12.62;60.91
7335;BME280;3708;42.632;23.378;2023-03-22T09:05:34;94135.16;;;12.16;62.09
7335;BME280;3708;42.632;23.378;2023-03-22T11:37:06;94144.28;;;14.54;55.88
7335;BME280;3708;42.632;23.378;2023-03-22T11:39:34;94136.56;;;14.45;55.91
7335;BME280;3708;42.632;23.378;2023-03-22T11:42:12;94139.81;;;14.39;56.52
7335;BME280;3708;42.632;23.378;2023-03-22T11:44:45;94140.44;;;14.51;56.10
7335;BME280;3708;42.632;23.378;2023-03-22T11:47:16;94133.91;;;14.45;56.23
7335;BME280;3708;42.632;23.378;2023-03-22T11:49:47;94130.19;;;14.46;56.82
7335;BME280;3708;42.632;23.378;2023-03-22T11:52:22;94134.63;;;14.42;57.32
7335;BME280;3708;42.632;23.378;2023-03-22T11:54:54;94131.88;;;14.55;57.31
7335;BME280;3708;42.632;23.378;2023-03-22T11:57:28;94132.75;;;14.62;57.72
7335;BME280;3708;42.632;23.378;2023-03-22T11:59:59;94135.97;;;14.71;57.44
7335;BME280;3708;42.632;23.378;2023-03-22T12:02:37;94137.50;;;14.72;57.27
7335;BME280;3708;42.632;23.378;2023-03-22T12:05:18;94143.97;;;14.75;56.76
7335;BME280;3708;42.632;23.378;2023-03-22T12:07:52;94147.06;;;14.61;56.70
7335;BME280;3708;42.632;23.378;2023-03-22T12:10:26;94142.81;;;14.57;57.02
7335;BME280;3708;42.632;23.378;2023-03-22T12:12:58;94144.63;;;14.52;56.85
7335;BME280;3708;42.632;23.378;2023-03-22T12:15:32;94139.22;;;14.65;56.73
7335;BME280;3708;42.632;23.378;2023-03-22T12:18:05;94141.31;;;14.75;56.93
7335;BME280;3708;42.632;23.378;2023-03-22T12:20:41;94139.22;;;14.84;56.58
7335;BME280;3708;42.632;23.378;2023-03-22T12:23:18;94139.56;;;14.82;56.84
7335;BME280;3708;42.632;23.378;2023-03-22T12:25:57;94133.56;;;15.01;56.23
7335;BME280;3708;42.632;23.378;2023-03-22T12:28:39;94128.75;;;14.87;56.38
7335;BME280;3708;42.632;23.378;2023-03-22T12:31:12;94133.66;;;15.08;55.79
7335;BME280;3708;42.632;23.378;2023-03-22T12:33:46;94134.00;;;15.25;55.26
7335;BME280;3708;42.632;23.378;2023-03-22T12:36:15;94135.63;;;14.92;54.36
7335;BME280;3708;42.632;23.378;2023-03-22T12:38:49;94125.34;;;14.68;55.20
7335;BME280;3708;42.632;23.378;2023-03-22T12:41:25;94123.00;;;15.01;54.69
7335;BME280;3708;42.632;23.378;2023-03-22T12:44:25;94121.94;;;15.24;54.31
7335;BME280;3708;42.632;23.378;2023-03-22T12:47:04;94128.13;;;15.55;53.26
7335;BME280;3708;42.632;23.378;2023-03-22T12:49:37;94123.66;;;15.81;52.38
7335;BME280;3708;42.632;23.378;2023-03-22T12:52:14;94124.34;;;15.33;51.97
7335;BME280;3708;42.632;23.378;2023-03-22T12:54:50;94122.88;;;15.81;50.98
7335;BME280;3708;42.632;23.378;2023-03-22T12:57:20;94125.59;;;15.84;50.41
7335;BME280;3708;42.632;23.378;2023-03-22T12:59:55;94122.50;;;16.05;50.10
7335;BME280;3708;42.632;23.378;2023-03-22T13:02:29;94128.16;;;15.81;49.59
7335;BME280;3708;42.632;23.378;2023-03-22T13:05:08;94125.44;;;15.74;50.20
7335;BME280;3708;42.632;23.378;2023-03-22T13:07:53;94123.28;;;16.06;50.19
7335;BME280;3708;42.632;23.378;2023-03-22T13:11:15;94128.47;;;15.11;50.86
7335;BME280;3708;42.632;23.378;2023-03-22T13:13:45;94120.63;;;15.38;50.14
7335;BME280;3708;42.632;23.378;2023-03-22T13:16:15;94122.94;;;15.39;50.18
7335;BME280;3708;42.632;23.378;2023-03-22T13:19:01;94125.66;;;15.23;50.76
7335;BME280;3708;42.632;23.378;2023-03-22T13:21:31;94120.69;;;15.41;50.87
7335;BME280;3708;42.632;23.378;2023-03-22T13:24:22;94119.13;;;15.59;50.67
7335;BME280;3708;42.632;23.378;2023-03-22T13:26:59;94119.44;;;14.55;52.67
7335;BME280;3708;42.632;23.378;2023-03-22T13:29:37;94107.88;;;14.60;53.07
7335;BME280;3708;42.632;23.378;2023-03-22T13:35:45;94112.31;;;14.05;54.34
7335;BME280;3708;42.632;23.378;2023-03-22T13:38:23;94107.09;;;14.40;53.17
7335;BME280;3708;42.632;23.378;2023-03-22T13:40:59;94112.38;;;14.24;53.45
7335;BME280;3708;42.632;23.378;2023-03-22T13:43:33;94110.38;;;13.09;56.62
7335;BME280;3708;42.632;23.378;2023-03-22T13:46:22;94119.16;;;13.75;55.95
7335;BME280;3708;42.632;23.378;2023-03-22T13:49:23;94121.44;;;13.76;55.50
7335;BME280;3708;42.632;23.378;2023-03-22T13:51:58;94121.69;;;14.03;55.41
7335;BME280;3708;42.632;23.378;2023-03-22T13:54:36;94126.44;;;13.97;56.56
7335;BME280;3708;42.632;23.378;2023-03-22T13:57:19;94126.63;;;14.39;55.99
7335;BME280;3708;42.632;23.378;2023-03-22T14:00:20;94120.34;;;14.63;55.72
7335;BME280;3708;42.632;23.378;2023-03-22T14:03:30;94116.19;;;14.62;56.65
7335;BME280;3708;42.632;23.378;2023-03-22T14:06:13;94120.91;;;14.72;56.00
7335;BME280;3708;42.632;23.378;2023-03-22T14:09:02;94109.31;;;14.76;55.88
7335;BME280;3708;42.632;23.378;2023-03-22T14:11:54;94117.28;;;14.26;55.65
7335;BME280;3708;42.632;23.378;2023-03-22T14:14:30;94107.78;;;13.40;58.28
7335;BME280;3708;42.632;23.378;2023-03-22T14:17:02;94113.38;;;13.38;57.66
7335;BME280;3708;42.632;23.378;2023-03-22T14:19:34;94107.06;;;14.05;56.95
7335;BME280;3708;42.632;23.378;2023-03-22T14:22:04;94114.50;;;13.84;57.03
7335;BME280;3708;42.632;23.378;2023-03-22T14:24:34;94116.38;;;14.18;55.84
7335;BME280;3708;42.632;23.378;2023-03-22T14:27:05;94111.25;;;14.60;55.15
7335;BME280;3708;42.632;23.378;2023-03-22T14:29:42;94122.56;;;14.61;54.72
7335;BME280;3708;42.632;23.378;2023-03-22T14:32:16;94123.69;;;14.60;53.51
7335;BME280;3708;42.632;23.378;2023-03-22T14:34:50;94114.50;;;13.84;56.10
7335;BME280;3708;42.632;23.378;2023-03-22T14:37:25;94120.31;;;14.09;54.68
7335;BME280;3708;42.632;23.378;2023-03-22T14:39:54;94118.81;;;13.76;55.40
7335;BME280;3708;42.632;23.378;2023-03-22T14:42:25;94131.41;;;14.33;53.79
7335;BME280;3708;42.632;23.378;2023-03-22T14:44:56;94123.03;;;14.12;54.82
7335;BME280;3708;42.632;23.378;2023-03-22T14:47:29;94122.59;;;14.10;55.42
7335;BME280;3708;42.632;23.378;2023-03-22T14:50:02;94128.06;;;13.86;55.27
7335;BME280;3708;42.632;23.378;2023-03-22T14:52:54;94129.22;;;14.55;53.92
7335;BME280;3708;42.632;23.378;2023-03-22T14:55:26;94130.59;;;14.29;54.81
7335;BME280;3708;42.632;23.378;2023-03-22T14:57:59;94128.13;;;14.05;55.35
7335;BME280;3708;42.632;23.378;2023-03-22T15:00:28;94134.72;;;14.15;54.74
7335;BME280;3708;42.632;23.378;2023-03-22T15:03:10;94119.75;;;13.84;55.48
7335;BME280;3708;42.632;23.378;2023-03-22T15:05:41;94134.72;;;14.30;54.77
7335;BME280;3708;42.632;23.378;2023-03-22T15:08:11;94130.59;;;14.29;54.42
7335;BME280;3708;42.632;23.378;2023-03-22T15:10:48;94129.28;;;14.77;53.30
7335;BME280;3708;42.632;23.378;2023-03-22T15:13:17;94122.38;;;14.34;54.44
7335;BME280;3708;42.632;23.378;2023-03-22T15:15:45;94127.34;;;14.55;53.66
7335;BME280;3708;42.632;23.378;2023-03-22T15:18:16;94130.38;;;14.22;54.50
7335;BME280;3708;42.632;23.378;2023-03-22T15:20:48;94129.19;;;14.35;54.37
7335;BME280;3708;42.632;23.378;2023-03-22T15:23:20;94130.56;;;14.64;53.90
7335;BME280;3708;42.632;23.378;2023-03-22T15:25:49;94132.13;;;14.69;53.93
7335;BME280;3708;42.632;23.378;2023-03-22T15:28:25;94134.25;;;15.40;52.39
7335;BME280;3708;42.632;23.378;2023-03-22T15:30:53;94125.41;;;15.96;50.00
7335;BME280;3708;42.632;23.378;2023-03-22T15:33:32;94136.50;;;16.58;48.92
7335;BME280;3708;42.632;23.378;2023-03-22T15:36:00;94131.25;;;16.91;48.23
7335;BME280;3708;42.632;23.378;2023-03-22T15:38:31;94130.94;;;16.96;46.97
7335;BME280;3708;42.632;23.378;2023-03-22T15:41:02;94126.25;;;17.52;45.84
7335;BME280;3708;42.632;23.378;2023-03-22T15:43:54;94120.56;;;17.50;44.98
7335;BME280;3708;42.632;23.378;2023-03-22T15:46:22;94130.94;;;16.66;46.68
7335;BME280;3708;42.632;23.378;2023-03-22T15:49:18;94135.44;;;16.96;46.83
7335;BME280;3708;42.632;23.378;2023-03-22T15:51:52;94134.81;;;17.06;46.35
7335;BME280;3708;42.632;23.378;2023-03-22T15:54:27;94135.22;;;17.08;45.76
7335;BME280;3708;42.632;23.378;2023-03-22T15:57:07;94134.91;;;16.80;45.71
7335;BME280;3708;42.632;23.378;2023-03-22T15:59:48;94132.31;;;16.57;45.46
7335;BME280;3708;42.632;23.378;2023-03-22T16:02:22;94133.19;;;16.64;45.45
7335;BME280;3708;42.632;23.378;2023-03-22T16:04:54;94138.53;;;16.68;45.64
7335;BME280;3708;42.632;23.378;2023-03-22T16:07:24;94137.41;;;16.69;45.85
7335;BME280;3708;42.632;23.378;2023-03-22T16:09:51;94143.25;;;16.85;46.22
7335;BME280;3708;42.632;23.378;2023-03-22T16:12:21;94137.16;;;16.81;47.43
7335;BME280;3708;42.632;23.378;2023-03-22T16:14:52;94136.47;;;16.84;48.57
7335;BME280;3708;42.632;23.378;2023-03-22T16:17:22;94142.47;;;16.81;48.91
7335;BME280;3708;42.632;23.378;2023-03-22T16:19:54;94146.28;;;16.84;48.98
7335;BME280;3708;42.632;23.378;2023-03-22T16:22:21;94145.25;;;16.62;49.54